sensor_id;sensor_type;location;lat;lon;timestamp;P1;durP1;ratioP1;P2;durP2;ratioP2
51828;SDS011;37881;48.024;8.774;2022-11-04T00:00:09;4.25;;;1.90;;
51828;SDS011;37881;48.024;8.774;2022-11-04T00:02:36;3.13;;;1.60;;
51828;SDS011;37881;48.024;8.774;2022-11-04T00:05:03;3.90;;;1.63;;
51828;SDS011;37881;48.024;8.774;2022-11-04T00:07:30;3.40;;;1.67;;
51828;SDS011;37881;48.024;8.774;2022-11-04T00:10:15;4.32;;;1.85;;
51828;SDS011;37881;48.024;8.774;2022-11-04T00:12:42;3.08;;;1.30;;
51828;SDS011;37881;48.024;8.774;2022-11-04T00:15:08;2.60;;;1.20;;
51828;SDS011;37881;48.024;8.774;2022-11-04T00:17:53;4.70;;;2.28;;
51828;SDS011;37881;48.024;8.774;2022-11-04T00:20:20;2.90;;;1.40;;
51828;SDS011;37881;48.024;8.774;2022-11-04T00:23:06;3.50;;;1.88;;
51828;SDS011;37881;48.024;8.774;2022-11-04T00:25:51;3.00;;;1.20;;
51828;SDS011;37881;48.024;8.774;2022-11-04T00:28:36;3.20;;;1.50;;
51828;SDS011;37881;48.024;8.774;2022-11-04T00:31:08;3.50;;;1.30;;
51828;SDS011;37881;48.024;8.774;2022-11-04T00:33:55;2.85;;;1.13;;
51828;SDS011;37881;48.024;8.774;2022-11-04T00:36:23;2.72;;;1.10;;
51828;SDS011;37881;48.024;8.774;2022-11-04T00:38:51;2.80;;;1.40;;
51828;SDS011;37881;48.024;8.774;2022-11-04T00:41:18;2.60;;;0.97;;
51828;SDS011;37881;48.024;8.774;2022-11-04T00:43:52;2.30;;;1.00;;
51828;SDS011;37881;48.024;8.774;2022-11-04T00:46:20;2.83;;;1.30;;
51828;SDS011;37881;48.024;8.774;2022-11-04T00:48:47;2.85;;;1.00;;
51828;SDS011;37881;48.024;8.774;2022-11-04T00:51:15;3.05;;;1.15;;
51828;SDS011;37881;48.024;8.774;2022-11-04T00:53:42;2.53;;;1.27;;
51828;SDS011;37881;48.024;8.774;2022-11-04T00:56:09;2.58;;;1.20;;
51828;SDS011;37881;48.024;8.774;2022-11-04T00:58:35;3.03;;;1.13;;
51828;SDS011;37881;48.024;8.774;2022-11-04T01:01:08;2.65;;;1.05;;
51828;SDS011;37881;48.024;8.774;2022-11-04T01:03:36;2.45;;;1.17;;
51828;SDS011;37881;48.024;8.774;2022-11-04T01:06:04;3.03;;;1.30;;
51828;SDS011;37881;48.024;8.774;2022-11-04T01:08:31;3.45;;;0.90;;
51828;SDS011;37881;48.024;8.774;2022-11-04T01:11:04;3.25;;;1.20;;
51828;SDS011;37881;48.024;8.774;2022-11-04T01:13:32;2.40;;;1.00;;
51828;SDS011;37881;48.024;8.774;2022-11-04T01:16:00;2.55;;;1.20;;
51828;SDS011;37881;48.024;8.774;2022-11-04T01:18:28;2.30;;;1.10;;
51828;SDS011;37881;48.024;8.774;2022-11-04T01:20:59;2.58;;;0.90;;
51828;SDS011;37881;48.024;8.774;2022-11-04T01:23:26;2.95;;;1.10;;
51828;SDS011;37881;48.024;8.774;2022-11-04T01:25:53;3.28;;;1.33;;
51828;SDS011;37881;48.024;8.774;2022-11-04T01:28:19;2.35;;;1.20;;
51828;SDS011;37881;48.024;8.774;2022-11-04T01:30:46;4.37;;;1.80;;
51828;SDS011;37881;48.024;8.774;2022-11-04T01:33:13;2.55;;;1.30;;
51828;SDS011;37881;48.024;8.774;2022-11-04T01:35:39;2.45;;;1.27;;
51828;SDS011;37881;48.024;8.774;2022-11-04T01:38:06;2.80;;;1.10;;
51828;SDS011;37881;48.024;8.774;2022-11-04T01:40:37;1.95;;;0.88;;
51828;SDS011;37881;48.024;8.774;2022-11-04T01:43:11;2.10;;;0.73;;
51828;SDS011;37881;48.024;8.774;2022-11-04T01:45:47;2.42;;;1.00;;
51828;SDS011;37881;48.024;8.774;2022-11-04T01:48:27;2.20;;;1.00;;
51828;SDS011;37881;48.024;8.774;2022-11-04T01:50:59;2.90;;;1.10;;
51828;SDS011;37881;48.024;8.774;2022-11-04T01:53:31;2.03;;;0.98;;
51828;SDS011;37881;48.024;8.774;2022-11-04T01:56:00;2.20;;;1.03;;
51828;SDS011;37881;48.024;8.774;2022-11-04T01:58:45;3.70;;;0.70;;
51828;SDS011;37881;48.024;8.774;2022-11-04T02:01:15;2.10;;;0.80;;
51828;SDS011;37881;48.024;8.774;2022-11-04T02:03:49;3.90;;;1.20;;
51828;SDS011;37881;48.024;8.774;2022-11-04T02:06:19;2.10;;;1.20;;
51828;SDS011;37881;48.024;8.774;2022-11-04T02:08:47;3.17;;;1.10;;
51828;SDS011;37881;48.024;8.774;2022-11-04T02:11:15;2.00;;;0.85;;
51828;SDS011;37881;48.024;8.774;2022-11-04T02:14:02;2.88;;;0.98;;
51828;SDS011;37881;48.024;8.774;2022-11-04T02:31:24;2.22;;;1.00;;
51828;SDS011;37881;48.024;8.774;2022-11-04T02:39:14;3.63;;;1.30;;
51828;SDS011;37881;48.024;8.774;2022-11-04T02:41:53;1.60;;;0.60;;
51828;SDS011;37881;48.024;8.774;2022-11-04T02:47:05;1.80;;;0.90;;
51828;SDS011;37881;48.024;8.774;2022-11-04T02:54:55;2.13;;;0.98;;
51828;SDS011;37881;48.024;8.774;2022-11-04T02:57:28;2.40;;;0.93;;
51828;SDS011;37881;48.024;8.774;2022-11-04T03:00:01;1.80;;;0.80;;
51828;SDS011;37881;48.024;8.774;2022-11-04T03:02:37;2.77;;;0.83;;
51828;SDS011;37881;48.024;8.774;2022-11-04T03:05:18;2.38;;;0.68;;
51828;SDS011;37881;48.024;8.774;2022-11-04T03:07:50;1.85;;;0.70;;
51828;SDS011;37881;48.024;8.774;2022-11-04T03:10:26;2.03;;;0.68;;
51828;SDS011;37881;48.024;8.774;2022-11-04T03:13:10;4.07;;;0.82;;
51828;SDS011;37881;48.024;8.774;2022-11-04T03:15:45;2.57;;;0.63;;
51828;SDS011;37881;48.024;8.774;2022-11-04T03:18:23;2.22;;;0.95;;
51828;SDS011;37881;48.024;8.774;2022-11-04T03:20:55;3.88;;;1.58;;
51828;SDS011;37881;48.024;8.774;2022-11-04T03:23:26;1.77;;;0.70;;
51828;SDS011;37881;48.024;8.774;2022-11-04T03:25:56;4.25;;;1.42;;
51828;SDS011;37881;48.024;8.774;2022-11-04T03:31:26;2.33;;;0.95;;
51828;SDS011;37881;48.024;8.774;2022-11-04T03:34:02;4.82;;;2.72;;
51828;SDS011;37881;48.024;8.774;2022-11-04T03:36:29;3.65;;;2.15;;
51828;SDS011;37881;48.024;8.774;2022-11-04T03:38:55;3.20;;;1.67;;
51828;SDS011;37881;48.024;8.774;2022-11-04T03:41:26;4.60;;;2.50;;
51828;SDS011;37881;48.024;8.774;2022-11-04T03:43:59;4.88;;;2.40;;
51828;SDS011;37881;48.024;8.774;2022-11-04T03:46:25;6.28;;;2.80;;
51828;SDS011;37881;48.024;8.774;2022-11-04T03:48:52;3.05;;;1.40;;
51828;SDS011;37881;48.024;8.774;2022-11-04T03:51:20;3.47;;;1.70;;
51828;SDS011;37881;48.024;8.774;2022-11-04T03:53:46;2.80;;;1.00;;
51828;SDS011;37881;48.024;8.774;2022-11-04T03:58:55;2.22;;;0.90;;
51828;SDS011;37881;48.024;8.774;2022-11-04T04:07:34;2.10;;;0.90;;
51828;SDS011;37881;48.024;8.774;2022-11-04T04:10:08;2.50;;;0.90;;
51828;SDS011;37881;48.024;8.774;2022-11-04T04:13:04;2.40;;;0.93;;
51828;SDS011;37881;48.024;8.774;2022-11-04T04:15:53;2.63;;;1.20;;
51828;SDS011;37881;48.024;8.774;2022-11-04T04:19:00;2.35;;;1.10;;
51828;SDS011;37881;48.024;8.774;2022-11-04T04:22:00;3.83;;;1.10;;
51828;SDS011;37881;48.024;8.774;2022-11-04T04:24:34;3.92;;;1.30;;
51828;SDS011;37881;48.024;8.774;2022-11-04T04:27:23;2.22;;;1.10;;
51828;SDS011;37881;48.024;8.774;2022-11-04T04:30:00;3.40;;;1.50;;
51828;SDS011;37881;48.024;8.774;2022-11-04T04:32:32;6.93;;;1.67;;
51828;SDS011;37881;48.024;8.774;2022-11-04T04:35:02;3.00;;;1.30;;
51828;SDS011;37881;48.024;8.774;2022-11-04T04:37:48;3.10;;;1.20;;
51828;SDS011;37881;48.024;8.774;2022-11-04T04:40:18;3.05;;;1.40;;
51828;SDS011;37881;48.024;8.774;2022-11-04T04:43:10;3.75;;;1.48;;
51828;SDS011;37881;48.024;8.774;2022-11-04T04:45:59;3.42;;;1.65;;
51828;SDS011;37881;48.024;8.774;2022-11-04T04:48:26;2.30;;;1.00;;
51828;SDS011;37881;48.024;8.774;2022-11-04T04:50:53;5.53;;;2.05;;
51828;SDS011;37881;48.024;8.774;2022-11-04T04:53:22;5.90;;;2.75;;
51828;SDS011;37881;48.024;8.774;2022-11-04T04:55:49;28.65;;;14.05;;
51828;SDS011;37881;48.024;8.774;2022-11-04T04:58:15;7.65;;;3.00;;
51828;SDS011;37881;48.024;8.774;2022-11-04T05:00:42;5.03;;;1.50;;
51828;SDS011;37881;48.024;8.774;2022-11-04T05:03:09;3.35;;;1.52;;
51828;SDS011;37881;48.024;8.774;2022-11-04T05:05:36;3.88;;;1.92;;
51828;SDS011;37881;48.024;8.774;2022-11-04T05:08:06;3.17;;;1.50;;
51828;SDS011;37881;48.024;8.774;2022-11-04T05:10:34;2.85;;;1.48;;
51828;SDS011;37881;48.024;8.774;2022-11-04T05:13:00;3.23;;;1.10;;
51828;SDS011;37881;48.024;8.774;2022-11-04T05:15:45;3.50;;;1.58;;
51828;SDS011;37881;48.024;8.774;2022-11-04T05:18:12;4.13;;;2.10;;
51828;SDS011;37881;48.024;8.774;2022-11-04T05:20:39;4.13;;;1.83;;
51828;SDS011;37881;48.024;8.774;2022-11-04T05:23:06;4.00;;;1.45;;
51828;SDS011;37881;48.024;8.774;2022-11-04T05:25:33;3.10;;;1.50;;
51828;SDS011;37881;48.024;8.774;2022-11-04T05:28:00;2.78;;;1.30;;
51828;SDS011;37881;48.024;8.774;2022-11-04T05:30:27;3.50;;;1.20;;
51828;SDS011;37881;48.024;8.774;2022-11-04T05:32:54;3.92;;;1.23;;
51828;SDS011;37881;48.024;8.774;2022-11-04T05:35:28;4.15;;;1.50;;
51828;SDS011;37881;48.024;8.774;2022-11-04T05:37:55;4.37;;;1.60;;
51828;SDS011;37881;48.024;8.774;2022-11-04T05:40:22;3.80;;;1.50;;
51828;SDS011;37881;48.024;8.774;2022-11-04T05:42:50;3.70;;;2.08;;
51828;SDS011;37881;48.024;8.774;2022-11-04T05:45:16;7.03;;;3.85;;
51828;SDS011;37881;48.024;8.774;2022-11-04T05:47:43;5.93;;;3.08;;
51828;SDS011;37881;48.024;8.774;2022-11-04T05:50:10;6.20;;;2.60;;
51828;SDS011;37881;48.024;8.774;2022-11-04T05:52:37;4.95;;;3.15;;
51828;SDS011;37881;48.024;8.774;2022-11-04T05:55:03;4.00;;;2.50;;
51828;SDS011;37881;48.024;8.774;2022-11-04T05:57:30;8.90;;;5.47;;
51828;SDS011;37881;48.024;8.774;2022-11-04T05:59:57;10.70;;;6.75;;
51828;SDS011;37881;48.024;8.774;2022-11-04T06:02:23;6.67;;;3.80;;
51828;SDS011;37881;48.024;8.774;2022-11-04T06:04:50;6.38;;;3.65;;
51828;SDS011;37881;48.024;8.774;2022-11-04T06:07:17;5.97;;;3.20;;
51828;SDS011;37881;48.024;8.774;2022-11-04T06:09:43;7.55;;;3.63;;
51828;SDS011;37881;48.024;8.774;2022-11-04T06:12:11;5.70;;;2.90;;
51828;SDS011;37881;48.024;8.774;2022-11-04T06:14:42;13.03;;;6.00;;
51828;SDS011;37881;48.024;8.774;2022-11-04T06:17:19;10.30;;;5.38;;
51828;SDS011;37881;48.024;8.774;2022-11-04T06:19:47;30.73;;;16.10;;
51828;SDS011;37881;48.024;8.774;2022-11-04T06:22:15;59.25;;;28.27;;
51828;SDS011;37881;48.024;8.774;2022-11-04T06:24:43;45.67;;;21.55;;
51828;SDS011;37881;48.024;8.774;2022-11-04T06:27:11;32.87;;;15.10;;
51828;SDS011;37881;48.024;8.774;2022-11-04T06:29:38;25.30;;;11.10;;
51828;SDS011;37881;48.024;8.774;2022-11-04T06:32:08;11.50;;;5.25;;
51828;SDS011;37881;48.024;8.774;2022-11-04T06:34:36;17.20;;;7.22;;
51828;SDS011;37881;48.024;8.774;2022-11-04T06:37:02;10.52;;;5.60;;
51828;SDS011;37881;48.024;8.774;2022-11-04T06:39:29;9.77;;;5.50;;
51828;SDS011;37881;48.024;8.774;2022-11-04T06:41:56;8.30;;;5.55;;
51828;SDS011;37881;48.024;8.774;2022-11-04T06:44:27;6.90;;;4.43;;
51828;SDS011;37881;48.024;8.774;2022-11-04T06:46:54;6.95;;;3.80;;
51828;SDS011;37881;48.024;8.774;2022-11-04T06:49:21;6.25;;;3.13;;
51828;SDS011;37881;48.024;8.774;2022-11-04T06:51:48;5.90;;;3.50;;
51828;SDS011;37881;48.024;8.774;2022-11-04T06:54:15;5.85;;;2.83;;
51828;SDS011;37881;48.024;8.774;2022-11-04T06:56:43;5.32;;;3.22;;
51828;SDS011;37881;48.024;8.774;2022-11-04T06:59:16;5.85;;;3.05;;
51828;SDS011;37881;48.024;8.774;2022-11-04T07:01:45;5.93;;;3.00;;
51828;SDS011;37881;48.024;8.774;2022-11-04T07:04:12;10.27;;;4.30;;
51828;SDS011;37881;48.024;8.774;2022-11-04T07:06:42;7.32;;;3.50;;
51828;SDS011;37881;48.024;8.774;2022-11-04T07:09:11;7.15;;;2.92;;
51828;SDS011;37881;48.024;8.774;2022-11-04T07:11:39;6.05;;;3.08;;
51828;SDS011;37881;48.024;8.774;2022-11-04T07:14:07;4.78;;;2.60;;
51828;SDS011;37881;48.024;8.774;2022-11-04T07:16:34;4.33;;;2.50;;
51828;SDS011;37881;48.024;8.774;2022-11-04T07:19:01;5.20;;;2.40;;
51828;SDS011;37881;48.024;8.774;2022-11-04T07:21:28;6.10;;;2.83;;
51828;SDS011;37881;48.024;8.774;2022-11-04T07:23:55;5.82;;;3.40;;
51828;SDS011;37881;48.024;8.774;2022-11-04T07:26:22;6.60;;;3.67;;
51828;SDS011;37881;48.024;8.774;2022-11-04T07:28:50;6.00;;;3.47;;
51828;SDS011;37881;48.024;8.774;2022-11-04T07:31:17;11.77;;;3.28;;
51828;SDS011;37881;48.024;8.774;2022-11-04T07:33:43;6.57;;;2.78;;
51828;SDS011;37881;48.024;8.774;2022-11-04T07:36:15;6.10;;;2.90;;
51828;SDS011;37881;48.024;8.774;2022-11-04T07:38:43;8.43;;;3.95;;
51828;SDS011;37881;48.024;8.774;2022-11-04T07:41:11;9.13;;;4.53;;
51828;SDS011;37881;48.024;8.774;2022-11-04T07:43:38;11.85;;;5.47;;
51828;SDS011;37881;48.024;8.774;2022-11-04T07:46:05;10.35;;;5.47;;
51828;SDS011;37881;48.024;8.774;2022-11-04T07:48:34;8.20;;;4.30;;
51828;SDS011;37881;48.024;8.774;2022-11-04T07:51:02;7.30;;;4.10;;
51828;SDS011;37881;48.024;8.774;2022-11-04T07:53:29;8.07;;;3.60;;
51828;SDS011;37881;48.024;8.774;2022-11-04T07:55:56;6.95;;;3.42;;
51828;SDS011;37881;48.024;8.774;2022-11-04T07:58:23;7.60;;;3.90;;
51828;SDS011;37881;48.024;8.774;2022-11-04T08:00:56;7.55;;;3.60;;
51828;SDS011;37881;48.024;8.774;2022-11-04T08:03:27;8.43;;;3.42;;
51828;SDS011;37881;48.024;8.774;2022-11-04T08:05:54;6.00;;;2.83;;
51828;SDS011;37881;48.024;8.774;2022-11-04T08:08:22;5.43;;;2.90;;
51828;SDS011;37881;48.024;8.774;2022-11-04T08:10:55;5.10;;;2.60;;
51828;SDS011;37881;48.024;8.774;2022-11-04T08:13:27;6.82;;;2.65;;
51828;SDS011;37881;48.024;8.774;2022-11-04T08:16:01;5.72;;;2.65;;
51828;SDS011;37881;48.024;8.774;2022-11-04T08:18:32;4.43;;;2.10;;
51828;SDS011;37881;48.024;8.774;2022-11-04T08:20:59;5.90;;;2.10;;
51828;SDS011;37881;48.024;8.774;2022-11-04T08:23:27;5.03;;;2.35;;
51828;SDS011;37881;48.024;8.774;2022-11-04T08:25:54;4.95;;;2.03;;
51828;SDS011;37881;48.024;8.774;2022-11-04T08:28:21;5.85;;;2.42;;
51828;SDS011;37881;48.024;8.774;2022-11-04T08:30:56;4.90;;;2.50;;
51828;SDS011;37881;48.024;8.774;2022-11-04T08:33:29;6.38;;;2.10;;
51828;SDS011;37881;48.024;8.774;2022-11-04T08:36:02;5.53;;;2.40;;
51828;SDS011;37881;48.024;8.774;2022-11-04T08:38:34;6.50;;;2.20;;
51828;SDS011;37881;48.024;8.774;2022-11-04T08:41:02;3.70;;;2.40;;
51828;SDS011;37881;48.024;8.774;2022-11-04T08:43:31;4.17;;;2.10;;
51828;SDS011;37881;48.024;8.774;2022-11-04T08:46:00;5.15;;;2.40;;
51828;SDS011;37881;48.024;8.774;2022-11-04T08:48:27;9.50;;;3.00;;
51828;SDS011;37881;48.024;8.774;2022-11-04T08:50:55;8.85;;;3.20;;
51828;SDS011;37881;48.024;8.774;2022-11-04T08:53:24;5.53;;;2.85;;
51828;SDS011;37881;48.024;8.774;2022-11-04T08:55:52;6.53;;;3.00;;
51828;SDS011;37881;48.024;8.774;2022-11-04T08:58:19;7.45;;;3.22;;
51828;SDS011;37881;48.024;8.774;2022-11-04T09:00:47;6.35;;;2.55;;
51828;SDS011;37881;48.024;8.774;2022-11-04T09:03:14;3.95;;;2.20;;
51828;SDS011;37881;48.024;8.774;2022-11-04T09:05:41;4.68;;;1.98;;
51828;SDS011;37881;48.024;8.774;2022-11-04T09:08:14;5.20;;;2.13;;
51828;SDS011;37881;48.024;8.774;2022-11-04T09:10:43;5.43;;;2.30;;
51828;SDS011;37881;48.024;8.774;2022-11-04T09:13:11;4.85;;;2.50;;
51828;SDS011;37881;48.024;8.774;2022-11-04T09:15:38;8.07;;;1.98;;
51828;SDS011;37881;48.024;8.774;2022-11-04T09:18:05;3.67;;;1.90;;
51828;SDS011;37881;48.024;8.774;2022-11-04T09:20:32;6.10;;;2.17;;
51828;SDS011;37881;48.024;8.774;2022-11-04T09:22:59;5.07;;;2.08;;
51828;SDS011;37881;48.024;8.774;2022-11-04T09:25:26;6.40;;;1.90;;
51828;SDS011;37881;48.024;8.774;2022-11-04T09:27:52;4.60;;;2.00;;
51828;SDS011;37881;48.024;8.774;2022-11-04T09:30:19;4.85;;;2.00;;
51828;SDS011;37881;48.024;8.774;2022-11-04T09:32:46;5.40;;;2.40;;
51828;SDS011;37881;48.024;8.774;2022-11-04T09:35:18;4.93;;;2.47;;
51828;SDS011;37881;48.024;8.774;2022-11-04T09:37:45;4.35;;;1.92;;
51828;SDS011;37881;48.024;8.774;2022-11-04T09:40:18;3.70;;;1.77;;
51828;SDS011;37881;48.024;8.774;2022-11-04T09:45:37;4.40;;;2.13;;
51828;SDS011;37881;48.024;8.774;2022-11-04T09:48:07;4.38;;;2.10;;
51828;SDS011;37881;48.024;8.774;2022-11-04T09:50:56;4.53;;;2.30;;
51828;SDS011;37881;48.024;8.774;2022-11-04T09:53:33;6.55;;;2.65;;
51828;SDS011;37881;48.024;8.774;2022-11-04T09:56:12;5.95;;;2.00;;
51828;SDS011;37881;48.024;8.774;2022-11-04T09:58:43;5.67;;;2.20;;
51828;SDS011;37881;48.024;8.774;2022-11-04T10:04:05;4.55;;;1.45;;
51828;SDS011;37881;48.024;8.774;2022-11-04T10:07:08;3.38;;;1.40;;
51828;SDS011;37881;48.024;8.774;2022-11-04T10:21:33;13.77;;;4.53;;
51828;SDS011;37881;48.024;8.774;2022-11-04T10:27:15;4.17;;;1.60;;
51828;SDS011;37881;48.024;8.774;2022-11-04T10:29:56;7.65;;;1.88;;
51828;SDS011;37881;48.024;8.774;2022-11-04T10:35:14;3.83;;;1.50;;
51828;SDS011;37881;48.024;8.774;2022-11-04T10:37:58;5.43;;;1.60;;
51828;SDS011;37881;48.024;8.774;2022-11-04T10:40:44;4.47;;;1.90;;
51828;SDS011;37881;48.024;8.774;2022-11-04T10:43:15;5.35;;;1.50;;
51828;SDS011;37881;48.024;8.774;2022-11-04T10:45:49;5.65;;;1.75;;
51828;SDS011;37881;48.024;8.774;2022-11-04T10:48:40;3.70;;;1.70;;
51828;SDS011;37881;48.024;8.774;2022-11-04T10:51:14;5.63;;;2.05;;
51828;SDS011;37881;48.024;8.774;2022-11-04T10:53:49;6.63;;;1.70;;
51828;SDS011;37881;48.024;8.774;2022-11-04T10:56:39;5.68;;;1.90;;
51828;SDS011;37881;48.024;8.774;2022-11-04T10:59:21;3.40;;;1.63;;
51828;SDS011;37881;48.024;8.774;2022-11-04T11:01:55;4.30;;;1.88;;
51828;SDS011;37881;48.024;8.774;2022-11-04T11:04:29;7.75;;;2.10;;
51828;SDS011;37881;48.024;8.774;2022-11-04T11:06:59;4.57;;;2.10;;
51828;SDS011;37881;48.024;8.774;2022-11-04T11:09:29;4.30;;;1.80;;
51828;SDS011;37881;48.024;8.774;2022-11-04T11:12:00;3.75;;;1.90;;
51828;SDS011;37881;48.024;8.774;2022-11-04T11:20:42;3.97;;;1.90;;
51828;SDS011;37881;48.024;8.774;2022-11-04T11:23:35;3.85;;;1.90;;
51828;SDS011;37881;48.024;8.774;2022-11-04T11:26:20;6.40;;;1.90;;
51828;SDS011;37881;48.024;8.774;2022-11-04T11:28:56;7.00;;;2.13;;
51828;SDS011;37881;48.024;8.774;2022-11-04T11:31:36;5.35;;;2.20;;
51828;SDS011;37881;48.024;8.774;2022-11-04T11:34:24;3.70;;;1.90;;
51828;SDS011;37881;48.024;8.774;2022-11-04T11:36:58;3.65;;;1.70;;
51828;SDS011;37881;48.024;8.774;2022-11-04T11:39:31;4.05;;;1.90;;
51828;SDS011;37881;48.024;8.774;2022-11-04T11:42:06;5.82;;;1.70;;
51828;SDS011;37881;48.024;8.774;2022-11-04T11:52:39;4.43;;;1.40;;
51828;SDS011;37881;48.024;8.774;2022-11-04T12:00:50;3.47;;;1.50;;
51828;SDS011;37881;48.024;8.774;2022-11-04T12:06:29;2.60;;;1.10;;
51828;SDS011;37881;48.024;8.774;2022-11-04T12:26:49;4.45;;;1.70;;
51828;SDS011;37881;48.024;8.774;2022-11-04T12:29:37;4.47;;;1.70;;
51828;SDS011;37881;48.024;8.774;2022-11-04T12:57:21;4.27;;;1.57;;
51828;SDS011;37881;48.024;8.774;2022-11-04T13:05:41;2.70;;;1.20;;
51828;SDS011;37881;48.024;8.774;2022-11-04T13:08:17;5.13;;;1.10;;
51828;SDS011;37881;48.024;8.774;2022-11-04T13:11:00;2.30;;;0.80;;
51828;SDS011;37881;48.024;8.774;2022-11-04T13:14:05;3.83;;;1.50;;
51828;SDS011;37881;48.024;8.774;2022-11-04T13:16:40;4.78;;;1.30;;
51828;SDS011;37881;48.024;8.774;2022-11-04T13:19:19;3.28;;;1.27;;
51828;SDS011;37881;48.024;8.774;2022-11-04T13:21:51;2.80;;;1.25;;
51828;SDS011;37881;48.024;8.774;2022-11-04T13:24:24;4.70;;;1.40;;
51828;SDS011;37881;48.024;8.774;2022-11-04T13:27:03;3.50;;;1.20;;
51828;SDS011;37881;48.024;8.774;2022-11-04T13:29:40;4.68;;;1.48;;
51828;SDS011;37881;48.024;8.774;2022-11-04T13:34:53;3.75;;;1.35;;
51828;SDS011;37881;48.024;8.774;2022-11-04T13:37:36;4.53;;;1.57;;
51828;SDS011;37881;48.024;8.774;2022-11-04T13:43:02;6.80;;;1.73;;
51828;SDS011;37881;48.024;8.774;2022-11-04T13:48:37;3.90;;;1.92;;
51828;SDS011;37881;48.024;8.774;2022-11-04T13:51:13;3.47;;;1.70;;
51828;SDS011;37881;48.024;8.774;2022-11-04T13:53:41;5.40;;;1.65;;
51828;SDS011;37881;48.024;8.774;2022-11-04T13:56:26;4.20;;;1.70;;
51828;SDS011;37881;48.024;8.774;2022-11-04T13:59:20;4.78;;;1.60;;
51828;SDS011;37881;48.024;8.774;2022-11-04T14:02:22;4.65;;;1.80;;
51828;SDS011;37881;48.024;8.774;2022-11-04T14:04:45;5.53;;;2.20;;
51828;SDS011;37881;48.024;8.774;2022-11-04T14:07:13;4.93;;;2.40;;
51828;SDS011;37881;48.024;8.774;2022-11-04T14:14:37;9.73;;;2.78;;
51828;SDS011;37881;48.024;8.774;2022-11-04T14:22:36;11.20;;;4.43;;
51828;SDS011;37881;48.024;8.774;2022-11-04T14:25:17;10.50;;;4.30;;
51828;SDS011;37881;48.024;8.774;2022-11-04T14:27:48;6.43;;;1.60;;
51828;SDS011;37881;48.024;8.774;2022-11-04T14:32:57;2.72;;;1.27;;
51828;SDS011;37881;48.024;8.774;2022-11-04T14:35:27;5.47;;;2.00;;
51828;SDS011;37881;48.024;8.774;2022-11-04T14:37:55;9.50;;;4.10;;
51828;SDS011;37881;48.024;8.774;2022-11-04T14:40:43;4.38;;;2.30;;
51828;SDS011;37881;48.024;8.774;2022-11-04T14:46:47;3.33;;;1.25;;
51828;SDS011;37881;48.024;8.774;2022-11-04T14:49:17;3.72;;;1.90;;
51828;SDS011;37881;48.024;8.774;2022-11-04T14:51:57;2.90;;;1.23;;
51828;SDS011;37881;48.024;8.774;2022-11-04T14:54:25;3.10;;;1.40;;
51828;SDS011;37881;48.024;8.774;2022-11-04T14:57:06;3.10;;;1.30;;
51828;SDS011;37881;48.024;8.774;2022-11-04T14:59:38;3.40;;;1.20;;
51828;SDS011;37881;48.024;8.774;2022-11-04T15:02:08;4.00;;;1.70;;
51828;SDS011;37881;48.024;8.774;2022-11-04T15:04:49;4.72;;;2.10;;
51828;SDS011;37881;48.024;8.774;2022-11-04T15:09:59;9.07;;;3.43;;
51828;SDS011;37881;48.024;8.774;2022-11-04T15:12:28;7.10;;;2.53;;
51828;SDS011;37881;48.024;8.774;2022-11-04T15:18:13;6.93;;;1.67;;
51828;SDS011;37881;48.024;8.774;2022-11-04T15:20:52;3.67;;;1.17;;
51828;SDS011;37881;48.024;8.774;2022-11-04T15:23:29;3.73;;;1.43;;
51828;SDS011;37881;48.024;8.774;2022-11-04T15:25:58;4.05;;;1.48;;
51828;SDS011;37881;48.024;8.774;2022-11-04T15:28:28;3.55;;;1.40;;
51828;SDS011;37881;48.024;8.774;2022-11-04T15:31:01;4.20;;;2.10;;
51828;SDS011;37881;48.024;8.774;2022-11-04T15:33:31;6.60;;;3.25;;
51828;SDS011;37881;48.024;8.774;2022-11-04T15:36:04;7.70;;;3.80;;
51828;SDS011;37881;48.024;8.774;2022-11-04T15:38:34;12.10;;;6.25;;
51828;SDS011;37881;48.024;8.774;2022-11-04T15:41:02;9.75;;;4.78;;
51828;SDS011;37881;48.024;8.774;2022-11-04T15:43:49;6.10;;;2.80;;
51828;SDS011;37881;48.024;8.774;2022-11-04T15:46:16;7.63;;;3.00;;
51828;SDS011;37881;48.024;8.774;2022-11-04T15:51:49;4.82;;;2.60;;
51828;SDS011;37881;48.024;8.774;2022-11-04T15:54:21;6.25;;;2.20;;
51828;SDS011;37881;48.024;8.774;2022-11-04T15:56:52;4.05;;;1.95;;
51828;SDS011;37881;48.024;8.774;2022-11-04T15:59:22;3.88;;;1.75;;
51828;SDS011;37881;48.024;8.774;2022-11-04T16:01:53;8.10;;;3.13;;
51828;SDS011;37881;48.024;8.774;2022-11-04T16:04:21;5.07;;;2.75;;
51828;SDS011;37881;48.024;8.774;2022-11-04T16:09:31;6.88;;;2.80;;
51828;SDS011;37881;48.024;8.774;2022-11-04T16:14:50;8.40;;;4.03;;
51828;SDS011;37881;48.024;8.774;2022-11-04T16:17:17;10.85;;;5.13;;
51828;SDS011;37881;48.024;8.774;2022-11-04T16:19:49;7.00;;;3.30;;
51828;SDS011;37881;48.024;8.774;2022-11-04T16:22:26;5.00;;;2.10;;
51828;SDS011;37881;48.024;8.774;2022-11-04T16:24:55;5.55;;;2.60;;
51828;SDS011;37881;48.024;8.774;2022-11-04T16:27:24;8.10;;;4.90;;
51828;SDS011;37881;48.024;8.774;2022-11-04T16:29:56;6.72;;;3.53;;
51828;SDS011;37881;48.024;8.774;2022-11-04T16:32:28;3.72;;;1.60;;
51828;SDS011;37881;48.024;8.774;2022-11-04T16:35:07;4.78;;;1.77;;
51828;SDS011;37881;48.024;8.774;2022-11-04T16:37:40;4.97;;;2.20;;
51828;SDS011;37881;48.024;8.774;2022-11-04T16:40:07;4.37;;;1.80;;
51828;SDS011;37881;48.024;8.774;2022-11-04T16:42:33;35.90;;;16.38;;
51828;SDS011;37881;48.024;8.774;2022-11-04T16:45:01;11.10;;;6.55;;
51828;SDS011;37881;48.024;8.774;2022-11-04T16:47:29;7.43;;;4.07;;
51828;SDS011;37881;48.024;8.774;2022-11-04T16:49:59;7.22;;;3.70;;
51828;SDS011;37881;48.024;8.774;2022-11-04T16:52:27;7.90;;;3.57;;
51828;SDS011;37881;48.024;8.774;2022-11-04T16:54:54;5.68;;;2.92;;
51828;SDS011;37881;48.024;8.774;2022-11-04T16:57:22;7.20;;;3.08;;
51828;SDS011;37881;48.024;8.774;2022-11-04T16:59:50;6.68;;;2.53;;
51828;SDS011;37881;48.024;8.774;2022-11-04T17:02:18;5.53;;;2.80;;
51828;SDS011;37881;48.024;8.774;2022-11-04T17:04:53;5.80;;;2.87;;
51828;SDS011;37881;48.024;8.774;2022-11-04T17:07:20;5.68;;;3.28;;
51828;SDS011;37881;48.024;8.774;2022-11-04T17:10:17;8.23;;;4.10;;
51828;SDS011;37881;48.024;8.774;2022-11-04T17:12:48;12.00;;;5.88;;
51828;SDS011;37881;48.024;8.774;2022-11-04T17:15:14;24.60;;;12.07;;
51828;SDS011;37881;48.024;8.774;2022-11-04T17:17:41;22.63;;;9.70;;
51828;SDS011;37881;48.024;8.774;2022-11-04T17:20:13;20.80;;;8.77;;
51828;SDS011;37881;48.024;8.774;2022-11-04T17:22:40;9.32;;;4.30;;
51828;SDS011;37881;48.024;8.774;2022-11-04T17:25:15;14.30;;;5.57;;
51828;SDS011;37881;48.024;8.774;2022-11-04T17:27:48;9.07;;;3.80;;
51828;SDS011;37881;48.024;8.774;2022-11-04T17:30:15;5.43;;;2.37;;
51828;SDS011;37881;48.024;8.774;2022-11-04T17:32:43;9.02;;;5.22;;
51828;SDS011;37881;48.024;8.774;2022-11-04T17:35:11;9.00;;;5.35;;
51828;SDS011;37881;48.024;8.774;2022-11-04T17:37:38;7.07;;;4.50;;
51828;SDS011;37881;48.024;8.774;2022-11-04T17:40:05;7.00;;;4.30;;
51828;SDS011;37881;48.024;8.774;2022-11-04T17:42:32;6.17;;;2.77;;
51828;SDS011;37881;48.024;8.774;2022-11-04T17:45:17;5.60;;;3.20;;
51828;SDS011;37881;48.024;8.774;2022-11-04T17:47:44;3.92;;;2.28;;
51828;SDS011;37881;48.024;8.774;2022-11-04T17:50:11;3.88;;;2.00;;
51828;SDS011;37881;48.024;8.774;2022-11-04T17:52:39;6.47;;;2.70;;
51828;SDS011;37881;48.024;8.774;2022-11-04T17:55:07;9.60;;;4.10;;
51828;SDS011;37881;48.024;8.774;2022-11-04T17:57:42;7.32;;;3.97;;
51828;SDS011;37881;48.024;8.774;2022-11-04T18:00:08;9.07;;;5.35;;
51828;SDS011;37881;48.024;8.774;2022-11-04T18:02:36;7.50;;;4.43;;
51828;SDS011;37881;48.024;8.774;2022-11-04T18:05:03;9.77;;;3.90;;
51828;SDS011;37881;48.024;8.774;2022-11-04T18:07:29;29.80;;;11.00;;